sensor_id;sensor_type;location;lat;lon;timestamp;P1;durP1;ratioP1;P2;durP2;ratioP2
6203;SDS011;3135;42.602;23.468;2022-07-22T00:02:14;4.05;;;2.83;;
6203;SDS011;3135;42.602;23.468;2022-07-22T00:04:40;3.70;;;2.87;;
6203;SDS011;3135;42.602;23.468;2022-07-22T00:07:05;3.43;;;3.07;;
6203;SDS011;3135;42.602;23.468;2022-07-22T00:09:31;4.55;;;3.30;;
6203;SDS011;3135;42.602;23.468;2022-07-22T00:11:57;3.58;;;3.00;;
6203;SDS011;3135;42.602;23.468;2022-07-22T00:14:23;3.47;;;3.13;;
6203;SDS011;3135;42.602;23.468;2022-07-22T00:16:48;5.38;;;2.80;;
6203;SDS011;3135;42.602;23.468;2022-07-22T00:19:13;6.00;;;2.90;;
6203;SDS011;3135;42.602;23.468;2022-07-22T00:21:39;7.20;;;3.30;;
6203;SDS011;3135;42.602;23.468;2022-07-22T00:24:04;4.40;;;3.08;;
6203;SDS011;3135;42.602;23.468;2022-07-22T00:26:30;4.72;;;3.30;;
6203;SDS011;3135;42.602;23.468;2022-07-22T00:28:56;5.93;;;3.30;;
6203;SDS011;3135;42.602;23.468;2022-07-22T00:31:22;3.40;;;2.92;;
6203;SDS011;3135;42.602;23.468;2022-07-22T00:33:47;5.40;;;3.40;;
6203;SDS011;3135;42.602;23.468;2022-07-22T00:36:13;6.40;;;3.20;;
6203;SDS011;3135;42.602;23.468;2022-07-22T00:38:38;3.47;;;3.10;;
6203;SDS011;3135;42.602;23.468;2022-07-22T00:41:04;6.00;;;3.10;;
6203;SDS011;3135;42.602;23.468;2022-07-22T00:46:34;3.53;;;3.10;;
6203;SDS011;3135;42.602;23.468;2022-07-22T00:49:01;6.30;;;3.55;;
6203;SDS011;3135;42.602;23.468;2022-07-22T00:51:29;3.50;;;3.20;;
6203;SDS011;3135;42.602;23.468;2022-07-22T00:53:55;5.45;;;3.28;;
6203;SDS011;3135;42.602;23.468;2022-07-22T00:56:22;4.25;;;2.97;;
6203;SDS011;3135;42.602;23.468;2022-07-22T00:58:49;3.50;;;3.20;;
6203;SDS011;3135;42.602;23.468;2022-07-22T01:01:16;4.73;;;3.40;;
6203;SDS011;3135;42.602;23.468;2022-07-22T01:03:42;5.07;;;3.13;;
6203;SDS011;3135;42.602;23.468;2022-07-22T01:06:07;4.00;;;3.05;;
6203;SDS011;3135;42.602;23.468;2022-07-22T01:08:33;3.22;;;3.00;;
6203;SDS011;3135;42.602;23.468;2022-07-22T01:11:12;3.45;;;3.10;;
6203;SDS011;3135;42.602;23.468;2022-07-22T01:13:39;5.50;;;3.17;;
6203;SDS011;3135;42.602;23.468;2022-07-22T01:16:06;4.35;;;3.00;;
6203;SDS011;3135;42.602;23.468;2022-07-22T01:18:33;5.57;;;3.45;;
6203;SDS011;3135;42.602;23.468;2022-07-22T01:20:59;6.13;;;3.30;;
6203;SDS011;3135;42.602;23.468;2022-07-22T01:23:24;3.43;;;2.80;;
6203;SDS011;3135;42.602;23.468;2022-07-22T01:25:50;5.30;;;3.23;;
6203;SDS011;3135;42.602;23.468;2022-07-22T01:28:15;3.77;;;3.20;;
6203;SDS011;3135;42.602;23.468;2022-07-22T01:30:41;4.83;;;3.10;;
6203;SDS011;3135;42.602;23.468;2022-07-22T01:33:06;5.50;;;3.33;;
6203;SDS011;3135;42.602;23.468;2022-07-22T01:35:32;5.37;;;3.63;;
6203;SDS011;3135;42.602;23.468;2022-07-22T01:37:57;4.22;;;3.40;;
6203;SDS011;3135;42.602;23.468;2022-07-22T01:40:22;3.73;;;3.30;;
6203;SDS011;3135;42.602;23.468;2022-07-22T01:42:48;5.23;;;3.43;;
6203;SDS011;3135;42.602;23.468;2022-07-22T01:45:14;4.83;;;3.20;;
6203;SDS011;3135;42.602;23.468;2022-07-22T01:47:40;4.70;;;3.23;;
6203;SDS011;3135;42.602;23.468;2022-07-22T01:50:05;4.23;;;3.10;;
6203;SDS011;3135;42.602;23.468;2022-07-22T01:52:33;4.47;;;3.78;;
6203;SDS011;3135;42.602;23.468;2022-07-22T01:54:58;7.37;;;3.40;;
6203;SDS011;3135;42.602;23.468;2022-07-22T01:57:24;4.00;;;3.35;;
6203;SDS011;3135;42.602;23.468;2022-07-22T01:59:49;4.87;;;3.23;;
6203;SDS011;3135;42.602;23.468;2022-07-22T02:02:15;4.27;;;3.27;;
6203;SDS011;3135;42.602;23.468;2022-07-22T02:04:40;5.67;;;3.10;;
6203;SDS011;3135;42.602;23.468;2022-07-22T02:07:06;6.47;;;3.20;;
6203;SDS011;3135;42.602;23.468;2022-07-22T02:09:31;3.93;;;3.40;;
6203;SDS011;3135;42.602;23.468;2022-07-22T02:11:57;4.93;;;3.43;;
6203;SDS011;3135;42.602;23.468;2022-07-22T02:14:22;4.53;;;3.40;;
6203;SDS011;3135;42.602;23.468;2022-07-22T02:16:48;4.67;;;3.40;;
6203;SDS011;3135;42.602;23.468;2022-07-22T02:19:13;3.43;;;3.10;;
6203;SDS011;3135;42.602;23.468;2022-07-22T02:21:38;4.35;;;3.03;;
6203;SDS011;3135;42.602;23.468;2022-07-22T02:24:04;3.87;;;3.20;;
6203;SDS011;3135;42.602;23.468;2022-07-22T02:26:30;5.17;;;3.40;;
6203;SDS011;3135;42.602;23.468;2022-07-22T02:28:55;4.03;;;3.10;;
6203;SDS011;3135;42.602;23.468;2022-07-22T02:31:21;5.03;;;3.50;;
6203;SDS011;3135;42.602;23.468;2022-07-22T02:33:46;3.63;;;3.00;;
6203;SDS011;3135;42.602;23.468;2022-07-22T02:36:12;4.10;;;3.40;;
6203;SDS011;3135;42.602;23.468;2022-07-22T02:38:37;6.57;;;3.53;;
6203;SDS011;3135;42.602;23.468;2022-07-22T02:41:03;3.80;;;3.00;;
6203;SDS011;3135;42.602;23.468;2022-07-22T02:43:28;5.70;;;3.37;;
6203;SDS011;3135;42.602;23.468;2022-07-22T02:45:54;5.07;;;3.43;;
6203;SDS011;3135;42.602;23.468;2022-07-22T02:48:19;4.00;;;3.30;;
6203;SDS011;3135;42.602;23.468;2022-07-22T02:50:45;4.03;;;3.40;;
6203;SDS011;3135;42.602;23.468;2022-07-22T02:53:12;8.00;;;3.63;;
6203;SDS011;3135;42.602;23.468;2022-07-22T02:55:37;4.40;;;3.33;;
6203;SDS011;3135;42.602;23.468;2022-07-22T02:58:04;6.60;;;3.37;;
6203;SDS011;3135;42.602;23.468;2022-07-22T03:00:30;4.00;;;3.50;;
6203;SDS011;3135;42.602;23.468;2022-07-22T03:02:55;6.93;;;3.43;;
6203;SDS011;3135;42.602;23.468;2022-07-22T03:05:21;5.17;;;3.50;;
6203;SDS011;3135;42.602;23.468;2022-07-22T03:07:46;6.50;;;3.53;;
6203;SDS011;3135;42.602;23.468;2022-07-22T03:10:13;3.42;;;3.13;;
6203;SDS011;3135;42.602;23.468;2022-07-22T03:12:39;4.18;;;3.40;;
6203;SDS011;3135;42.602;23.468;2022-07-22T03:15:04;6.50;;;3.53;;
6203;SDS011;3135;42.602;23.468;2022-07-22T03:17:34;4.35;;;3.20;;
6203;SDS011;3135;42.602;23.468;2022-07-22T03:20:03;6.15;;;3.38;;
6203;SDS011;3135;42.602;23.468;2022-07-22T03:22:30;4.38;;;3.42;;
6203;SDS011;3135;42.602;23.468;2022-07-22T03:24:55;4.45;;;3.50;;
6203;SDS011;3135;42.602;23.468;2022-07-22T03:27:21;4.40;;;3.78;;
6203;SDS011;3135;42.602;23.468;2022-07-22T03:29:46;5.80;;;3.63;;
6203;SDS011;3135;42.602;23.468;2022-07-22T03:32:12;5.07;;;3.50;;
6203;SDS011;3135;42.602;23.468;2022-07-22T03:34:37;3.63;;;3.30;;
6203;SDS011;3135;42.602;23.468;2022-07-22T03:37:03;3.88;;;3.22;;
6203;SDS011;3135;42.602;23.468;2022-07-22T03:39:28;5.50;;;3.70;;
6203;SDS011;3135;42.602;23.468;2022-07-22T03:41:54;5.07;;;3.50;;
6203;SDS011;3135;42.602;23.468;2022-07-22T03:44:19;5.07;;;3.30;;
6203;SDS011;3135;42.602;23.468;2022-07-22T03:46:45;6.53;;;3.60;;
6203;SDS011;3135;42.602;23.468;2022-07-22T03:49:10;3.20;;;2.90;;
6203;SDS011;3135;42.602;23.468;2022-07-22T03:51:35;5.53;;;3.40;;
6203;SDS011;3135;42.602;23.468;2022-07-22T03:54:01;9.10;;;3.57;;
6203;SDS011;3135;42.602;23.468;2022-07-22T03:56:27;8.17;;;3.80;;
6203;SDS011;3135;42.602;23.468;2022-07-22T03:58:52;4.37;;;3.30;;
6203;SDS011;3135;42.602;23.468;2022-07-22T04:01:18;5.55;;;3.40;;
6203;SDS011;3135;42.602;23.468;2022-07-22T04:03:43;4.83;;;3.57;;
6203;SDS011;3135;42.602;23.468;2022-07-22T04:06:08;5.80;;;3.40;;
6203;SDS011;3135;42.602;23.468;2022-07-22T04:08:34;4.77;;;3.70;;
6203;SDS011;3135;42.602;23.468;2022-07-22T04:10:59;8.60;;;3.58;;
6203;SDS011;3135;42.602;23.468;2022-07-22T04:13:25;6.67;;;3.90;;
6203;SDS011;3135;42.602;23.468;2022-07-22T04:15:51;5.03;;;3.80;;
6203;SDS011;3135;42.602;23.468;2022-07-22T04:18:16;7.40;;;3.90;;
6203;SDS011;3135;42.602;23.468;2022-07-22T04:20:42;6.07;;;4.18;;
6203;SDS011;3135;42.602;23.468;2022-07-22T04:23:08;5.90;;;3.80;;
6203;SDS011;3135;42.602;23.468;2022-07-22T04:25:33;5.73;;;3.60;;
6203;SDS011;3135;42.602;23.468;2022-07-22T04:27:59;4.88;;;4.07;;
6203;SDS011;3135;42.602;23.468;2022-07-22T04:30:24;9.48;;;5.00;;
6203;SDS011;3135;42.602;23.468;2022-07-22T04:32:51;14.37;;;6.37;;
6203;SDS011;3135;42.602;23.468;2022-07-22T04:35:16;17.05;;;8.65;;
6203;SDS011;3135;42.602;23.468;2022-07-22T04:37:42;28.33;;;9.65;;
6203;SDS011;3135;42.602;23.468;2022-07-22T04:40:07;23.23;;;9.93;;
6203;SDS011;3135;42.602;23.468;2022-07-22T04:42:33;18.42;;;8.40;;
6203;SDS011;3135;42.602;23.468;2022-07-22T04:44:59;16.58;;;8.23;;
6203;SDS011;3135;42.602;23.468;2022-07-22T04:47:24;22.23;;;9.33;;
6203;SDS011;3135;42.602;23.468;2022-07-22T04:49:50;19.07;;;8.40;;
6203;SDS011;3135;42.602;23.468;2022-07-22T04:52:15;19.00;;;7.82;;
6203;SDS011;3135;42.602;23.468;2022-07-22T04:54:41;19.73;;;8.40;;
6203;SDS011;3135;42.602;23.468;2022-07-22T04:57:06;20.50;;;8.63;;
6203;SDS011;3135;42.602;23.468;2022-07-22T04:59:32;16.23;;;7.73;;
6203;SDS011;3135;42.602;23.468;2022-07-22T05:01:57;23.33;;;7.95;;
6203;SDS011;3135;42.602;23.468;2022-07-22T05:04:22;16.00;;;8.00;;
6203;SDS011;3135;42.602;23.468;2022-07-22T05:06:48;21.17;;;8.20;;
6203;SDS011;3135;42.602;23.468;2022-07-22T05:09:13;14.68;;;6.97;;
6203;SDS011;3135;42.602;23.468;2022-07-22T05:11:39;13.07;;;6.40;;
6203;SDS011;3135;42.602;23.468;2022-07-22T05:14:04;11.10;;;6.03;;
6203;SDS011;3135;42.602;23.468;2022-07-22T05:16:30;11.13;;;5.40;;
6203;SDS011;3135;42.602;23.468;2022-07-22T05:18:55;13.35;;;6.05;;
6203;SDS011;3135;42.602;23.468;2022-07-22T05:21:21;11.63;;;6.80;;
6203;SDS011;3135;42.602;23.468;2022-07-22T05:23:46;13.03;;;6.17;;
6203;SDS011;3135;42.602;23.468;2022-07-22T05:26:12;14.23;;;5.93;;
6203;SDS011;3135;42.602;23.468;2022-07-22T05:28:37;15.53;;;6.40;;
6203;SDS011;3135;42.602;23.468;2022-07-22T05:31:02;9.37;;;6.20;;
6203;SDS011;3135;42.602;23.468;2022-07-22T05:33:28;10.73;;;5.95;;
6203;SDS011;3135;42.602;23.468;2022-07-22T05:35:54;11.50;;;5.93;;
6203;SDS011;3135;42.602;23.468;2022-07-22T05:38:19;11.93;;;5.83;;
6203;SDS011;3135;42.602;23.468;2022-07-22T05:40:45;15.10;;;5.90;;
6203;SDS011;3135;42.602;23.468;2022-07-22T05:43:10;11.17;;;5.73;;
6203;SDS011;3135;42.602;23.468;2022-07-22T05:45:36;10.70;;;5.33;;
6203;SDS011;3135;42.602;23.468;2022-07-22T05:48:01;9.35;;;5.55;;
6203;SDS011;3135;42.602;23.468;2022-07-22T05:50:27;10.60;;;5.23;;
6203;SDS011;3135;42.602;23.468;2022-07-22T05:52:53;6.53;;;4.68;;
6203;SDS011;3135;42.602;23.468;2022-07-22T05:55:18;8.70;;;5.23;;
6203;SDS011;3135;42.602;23.468;2022-07-22T05:57:44;9.40;;;5.90;;
6203;SDS011;3135;42.602;23.468;2022-07-22T06:00:09;10.87;;;5.60;;
6203;SDS011;3135;42.602;23.468;2022-07-22T06:02:35;7.63;;;5.47;;
6203;SDS011;3135;42.602;23.468;2022-07-22T06:05:01;7.73;;;5.43;;
6203;SDS011;3135;42.602;23.468;2022-07-22T06:07:27;8.98;;;5.60;;
6203;SDS011;3135;42.602;23.468;2022-07-22T06:09:53;8.80;;;5.67;;
6203;SDS011;3135;42.602;23.468;2022-07-22T06:12:18;7.10;;;5.25;;
6203;SDS011;3135;42.602;23.468;2022-07-22T06:14:44;7.03;;;5.10;;
6203;SDS011;3135;42.602;23.468;2022-07-22T06:17:11;11.55;;;5.22;;
6203;SDS011;3135;42.602;23.468;2022-07-22T06:19:37;9.00;;;5.00;;
6203;SDS011;3135;42.602;23.468;2022-07-22T06:22:02;10.23;;;5.63;;
6203;SDS011;3135;42.602;23.468;2022-07-22T06:24:27;11.93;;;5.22;;
6203;SDS011;3135;42.602;23.468;2022-07-22T06:26:53;9.67;;;5.17;;
6203;SDS011;3135;42.602;23.468;2022-07-22T06:29:18;8.13;;;5.30;;
6203;SDS011;3135;42.602;23.468;2022-07-22T06:31:44;8.17;;;5.30;;
6203;SDS011;3135;42.602;23.468;2022-07-22T06:34:09;8.40;;;5.40;;
6203;SDS011;3135;42.602;23.468;2022-07-22T06:36:35;10.23;;;5.38;;
6203;SDS011;3135;42.602;23.468;2022-07-22T06:39:00;6.97;;;5.40;;
6203;SDS011;3135;42.602;23.468;2022-07-22T06:41:26;7.97;;;5.40;;
6203;SDS011;3135;42.602;23.468;2022-07-22T06:43:52;7.93;;;5.57;;
6203;SDS011;3135;42.602;23.468;2022-07-22T06:46:17;8.68;;;5.43;;
6203;SDS011;3135;42.602;23.468;2022-07-22T06:48:43;8.68;;;5.07;;
6203;SDS011;3135;42.602;23.468;2022-07-22T06:51:08;7.80;;;4.80;;
6203;SDS011;3135;42.602;23.468;2022-07-22T06:53:34;7.07;;;5.10;;
6203;SDS011;3135;42.602;23.468;2022-07-22T06:55:59;18.40;;;4.77;;
6203;SDS011;3135;42.602;23.468;2022-07-22T06:58:25;11.07;;;5.10;;
6203;SDS011;3135;42.602;23.468;2022-07-22T07:00:50;9.13;;;5.20;;
6203;SDS011;3135;42.602;23.468;2022-07-22T07:03:16;10.10;;;4.97;;
6203;SDS011;3135;42.602;23.468;2022-07-22T07:05:42;8.00;;;4.55;;
6203;SDS011;3135;42.602;23.468;2022-07-22T07:08:07;8.23;;;4.60;;
6203;SDS011;3135;42.602;23.468;2022-07-22T07:10:32;7.40;;;4.30;;
6203;SDS011;3135;42.602;23.468;2022-07-22T07:12:58;8.88;;;4.25;;
6203;SDS011;3135;42.602;23.468;2022-07-22T07:15:24;7.10;;;4.72;;
6203;SDS011;3135;42.602;23.468;2022-07-22T07:17:53;7.93;;;4.72;;
6203;SDS011;3135;42.602;23.468;2022-07-22T07:20:19;7.70;;;4.33;;
6203;SDS011;3135;42.602;23.468;2022-07-22T07:22:45;7.33;;;4.40;;
6203;SDS011;3135;42.602;23.468;2022-07-22T07:25:11;4.88;;;4.38;;
6203;SDS011;3135;42.602;23.468;2022-07-22T07:27:37;8.02;;;4.50;;
6203;SDS011;3135;42.602;23.468;2022-07-22T07:30:03;8.30;;;4.67;;
6203;SDS011;3135;42.602;23.468;2022-07-22T07:32:30;8.90;;;4.97;;
6203;SDS011;3135;42.602;23.468;2022-07-22T07:34:55;8.43;;;4.70;;
6203;SDS011;3135;42.602;23.468;2022-07-22T07:37:20;5.33;;;4.47;;
6203;SDS011;3135;42.602;23.468;2022-07-22T07:39:46;9.38;;;4.35;;
6203;SDS011;3135;42.602;23.468;2022-07-22T07:42:11;6.40;;;4.60;;
6203;SDS011;3135;42.602;23.468;2022-07-22T07:44:37;10.48;;;4.07;;
6203;SDS011;3135;42.602;23.468;2022-07-22T07:47:02;4.73;;;4.23;;
6203;SDS011;3135;42.602;23.468;2022-07-22T07:49:28;4.55;;;4.10;;
6203;SDS011;3135;42.602;23.468;2022-07-22T07:51:53;6.27;;;4.17;;
6203;SDS011;3135;42.602;23.468;2022-07-22T07:54:19;9.10;;;4.78;;
6203;SDS011;3135;42.602;23.468;2022-07-22T07:56:45;6.63;;;4.33;;
6203;SDS011;3135;42.602;23.468;2022-07-22T07:59:10;6.20;;;4.20;;
6203;SDS011;3135;42.602;23.468;2022-07-22T08:01:36;7.32;;;4.20;;
6203;SDS011;3135;42.602;23.468;2022-07-22T08:04:01;5.60;;;4.10;;
6203;SDS011;3135;42.602;23.468;2022-07-22T08:06:27;4.65;;;4.10;;
6203;SDS011;3135;42.602;23.468;2022-07-22T08:08:52;4.90;;;4.37;;
6203;SDS011;3135;42.602;23.468;2022-07-22T08:11:18;6.60;;;4.13;;
6203;SDS011;3135;42.602;23.468;2022-07-22T08:13:43;6.73;;;4.10;;
6203;SDS011;3135;42.602;23.468;2022-07-22T08:16:09;5.63;;;3.60;;
6203;SDS011;3135;42.602;23.468;2022-07-22T08:18:34;6.23;;;3.90;;
6203;SDS011;3135;42.602;23.468;2022-07-22T08:21:00;5.85;;;3.40;;
6203;SDS011;3135;42.602;23.468;2022-07-22T08:23:25;5.13;;;3.40;;
6203;SDS011;3135;42.602;23.468;2022-07-22T08:25:51;3.65;;;3.08;;
6203;SDS011;3135;42.602;23.468;2022-07-22T08:28:16;6.00;;;3.87;;
6203;SDS011;3135;42.602;23.468;2022-07-22T08:30:42;5.75;;;3.72;;
6203;SDS011;3135;42.602;23.468;2022-07-22T08:33:07;3.63;;;3.33;;
6203;SDS011;3135;42.602;23.468;2022-07-22T08:35:34;6.30;;;3.77;;
6203;SDS011;3135;42.602;23.468;2022-07-22T08:37:59;3.67;;;3.37;;
6203;SDS011;3135;42.602;23.468;2022-07-22T08:40:25;4.60;;;3.87;;
6203;SDS011;3135;42.602;23.468;2022-07-22T08:42:51;6.82;;;3.65;;
6203;SDS011;3135;42.602;23.468;2022-07-22T08:45:17;5.05;;;3.70;;
6203;SDS011;3135;42.602;23.468;2022-07-22T08:47:44;5.93;;;3.50;;
6203;SDS011;3135;42.602;23.468;2022-07-22T08:50:10;5.45;;;3.70;;
6203;SDS011;3135;42.602;23.468;2022-07-22T08:52:36;6.38;;;3.80;;
6203;SDS011;3135;42.602;23.468;2022-07-22T08:55:03;3.72;;;3.40;;
6203;SDS011;3135;42.602;23.468;2022-07-22T08:57:30;8.30;;;3.70;;
6203;SDS011;3135;42.602;23.468;2022-07-22T08:59:56;4.15;;;3.70;;
6203;SDS011;3135;42.602;23.468;2022-07-22T09:02:24;5.50;;;3.10;;
6203;SDS011;3135;42.602;23.468;2022-07-22T09:04:50;4.70;;;3.73;;
6203;SDS011;3135;42.602;23.468;2022-07-22T09:07:31;4.88;;;3.45;;
6203;SDS011;3135;42.602;23.468;2022-07-22T09:09:59;8.38;;;3.65;;
6203;SDS011;3135;42.602;23.468;2022-07-22T09:12:25;5.28;;;3.58;;
6203;SDS011;3135;42.602;23.468;2022-07-22T09:14:57;5.70;;;3.30;;
6203;SDS011;3135;42.602;23.468;2022-07-22T09:17:27;4.15;;;3.72;;
6203;SDS011;3135;42.602;23.468;2022-07-22T09:20:00;3.50;;;3.20;;
6203;SDS011;3135;42.602;23.468;2022-07-22T09:22:32;3.50;;;3.20;;
6203;SDS011;3135;42.602;23.468;2022-07-22T09:27:47;5.75;;;3.70;;
6203;SDS011;3135;42.602;23.468;2022-07-22T09:30:15;4.18;;;3.47;;
6203;SDS011;3135;42.602;23.468;2022-07-22T09:32:52;3.65;;;3.40;;
6203;SDS011;3135;42.602;23.468;2022-07-22T09:35:19;7.83;;;3.50;;
6203;SDS011;3135;42.602;23.468;2022-07-22T09:40:15;5.38;;;3.10;;
6203;SDS011;3135;42.602;23.468;2022-07-22T09:45:17;4.07;;;3.47;;
6203;SDS011;3135;42.602;23.468;2022-07-22T09:47:44;4.32;;;3.08;;
6203;SDS011;3135;42.602;23.468;2022-07-22T09:53:05;3.60;;;3.40;;
6203;SDS011;3135;42.602;23.468;2022-07-22T09:55:30;3.97;;;3.60;;
6203;SDS011;3135;42.602;23.468;2022-07-22T09:57:58;3.83;;;3.42;;
6203;SDS011;3135;42.602;23.468;2022-07-22T10:00:25;3.58;;;3.28;;
6203;SDS011;3135;42.602;23.468;2022-07-22T10:02:59;4.00;;;3.47;;
6203;SDS011;3135;42.602;23.468;2022-07-22T10:05:27;3.58;;;3.28;;
6203;SDS011;3135;42.602;23.468;2022-07-22T10:07:54;4.97;;;3.63;;
6203;SDS011;3135;42.602;23.468;2022-07-22T10:10:21;3.78;;;3.47;;
6203;SDS011;3135;42.602;23.468;2022-07-22T10:12:49;6.18;;;3.60;;
6203;SDS011;3135;42.602;23.468;2022-07-22T10:15:15;4.88;;;3.47;;
6203;SDS011;3135;42.602;23.468;2022-07-22T10:17:43;3.78;;;3.40;;
6203;SDS011;3135;42.602;23.468;2022-07-22T10:20:10;3.97;;;3.50;;
6203;SDS011;3135;42.602;23.468;2022-07-22T10:25:06;4.22;;;3.83;;
6203;SDS011;3135;42.602;23.468;2022-07-22T10:30:13;3.90;;;3.50;;
6203;SDS011;3135;42.602;23.468;2022-07-22T10:32:41;4.00;;;3.35;;
6203;SDS011;3135;42.602;23.468;2022-07-22T10:40:19;4.70;;;3.60;;
6203;SDS011;3135;42.602;23.468;2022-07-22T10:45:32;3.97;;;3.57;;
6203;SDS011;3135;42.602;23.468;2022-07-22T10:48:07;4.40;;;3.85;;
6203;SDS011;3135;42.602;23.468;2022-07-22T10:53:12;4.97;;;3.65;;
6203;SDS011;3135;42.602;23.468;2022-07-22T11:00:59;4.45;;;4.03;;
6203;SDS011;3135;42.602;23.468;2022-07-22T11:03:29;6.63;;;3.60;;
6203;SDS011;3135;42.602;23.468;2022-07-22T11:05:55;3.92;;;3.60;;
6203;SDS011;3135;42.602;23.468;2022-07-22T11:08:21;5.35;;;3.75;;
6203;SDS011;3135;42.602;23.468;2022-07-22T11:10:48;4.27;;;3.77;;
6203;SDS011;3135;42.602;23.468;2022-07-22T11:13:30;4.05;;;3.58;;
6203;SDS011;3135;42.602;23.468;2022-07-22T11:15:56;3.80;;;3.50;;
6203;SDS011;3135;42.602;23.468;2022-07-22T11:18:49;6.88;;;3.70;;
6203;SDS011;3135;42.602;23.468;2022-07-22T11:21:21;5.13;;;3.88;;
6203;SDS011;3135;42.602;23.468;2022-07-22T11:23:49;6.13;;;3.80;;
6203;SDS011;3135;42.602;23.468;2022-07-22T11:26:17;4.25;;;3.60;;
6203;SDS011;3135;42.602;23.468;2022-07-22T11:28:45;4.03;;;3.60;;
6203;SDS011;3135;42.602;23.468;2022-07-22T11:31:15;6.15;;;4.28;;
6203;SDS011;3135;42.602;23.468;2022-07-22T11:33:42;4.47;;;3.80;;
6203;SDS011;3135;42.602;23.468;2022-07-22T11:36:09;4.72;;;4.07;;
6203;SDS011;3135;42.602;23.468;2022-07-22T11:38:41;5.40;;;4.03;;
6203;SDS011;3135;42.602;23.468;2022-07-22T11:41:08;5.00;;;3.78;;
6203;SDS011;3135;42.602;23.468;2022-07-22T11:43:49;4.20;;;3.60;;
6203;SDS011;3135;42.602;23.468;2022-07-22T11:46:16;6.97;;;3.87;;
6203;SDS011;3135;42.602;23.468;2022-07-22T11:48:43;4.78;;;3.65;;
6203;SDS011;3135;42.602;23.468;2022-07-22T11:51:10;3.97;;;3.67;;
6203;SDS011;3135;42.602;23.468;2022-07-22T11:53:37;4.50;;;3.97;;
6203;SDS011;3135;42.602;23.468;2022-07-22T11:56:04;4.55;;;3.60;;
6203;SDS011;3135;42.602;23.468;2022-07-22T11:58:39;4.00;;;3.70;;
6203;SDS011;3135;42.602;23.468;2022-07-22T12:01:08;4.75;;;3.97;;
6203;SDS011;3135;42.602;23.468;2022-07-22T12:03:36;4.25;;;3.63;;
6203;SDS011;3135;42.602;23.468;2022-07-22T12:06:03;5.25;;;3.65;;
6203;SDS011;3135;42.602;23.468;2022-07-22T12:08:32;4.30;;;3.37;;
6203;SDS011;3135;42.602;23.468;2022-07-22T12:10:58;4.32;;;2.97;;
6203;SDS011;3135;42.602;23.468;2022-07-22T12:13:28;6.27;;;3.13;;
6203;SDS011;3135;42.602;23.468;2022-07-22T12:15:55;3.60;;;2.70;;
6203;SDS011;3135;42.602;23.468;2022-07-22T12:18:21;3.13;;;2.83;;
6203;SDS011;3135;42.602;23.468;2022-07-22T12:20:48;3.10;;;2.80;;
6203;SDS011;3135;42.602;23.468;2022-07-22T12:23:15;3.80;;;2.80;;
6203;SDS011;3135;42.602;23.468;2022-07-22T12:25:51;3.80;;;3.00;;
6203;SDS011;3135;42.602;23.468;2022-07-22T12:28:16;3.40;;;2.55;;
6203;SDS011;3135;42.602;23.468;2022-07-22T12:30:42;5.77;;;2.90;;
6203;SDS011;3135;42.602;23.468;2022-07-22T12:33:17;3.43;;;2.83;;
6203;SDS011;3135;42.602;23.468;2022-07-22T12:35:44;3.57;;;2.70;;
6203;SDS011;3135;42.602;23.468;2022-07-22T12:38:22;3.20;;;2.90;;
6203;SDS011;3135;42.602;23.468;2022-07-22T12:40:48;2.90;;;2.70;;
6203;SDS011;3135;42.602;23.468;2022-07-22T12:43:13;3.33;;;3.00;;
6203;SDS011;3135;42.602;23.468;2022-07-22T12:45:39;4.13;;;2.90;;
6203;SDS011;3135;42.602;23.468;2022-07-22T12:48:06;3.15;;;2.85;;
6203;SDS011;3135;42.602;23.468;2022-07-22T12:50:43;3.20;;;2.85;;
6203;SDS011;3135;42.602;23.468;2022-07-22T12:53:10;3.38;;;3.08;;
6203;SDS011;3135;42.602;23.468;2022-07-22T12:55:48;3.88;;;2.90;;
6203;SDS011;3135;42.602;23.468;2022-07-22T12:58:14;3.70;;;3.10;;
6203;SDS011;3135;42.602;23.468;2022-07-22T13:00:44;4.05;;;3.08;;
6203;SDS011;3135;42.602;23.468;2022-07-22T13:03:11;3.15;;;2.95;;
6203;SDS011;3135;42.602;23.468;2022-07-22T13:05:37;4.43;;;3.03;;
6203;SDS011;3135;42.602;23.468;2022-07-22T13:08:03;3.03;;;2.77;;
6203;SDS011;3135;42.602;23.468;2022-07-22T13:10:29;3.55;;;3.20;;
6203;SDS011;3135;42.602;23.468;2022-07-22T13:12:55;3.25;;;2.95;;
6203;SDS011;3135;42.602;23.468;2022-07-22T13:15:21;3.05;;;2.78;;
6203;SDS011;3135;42.602;23.468;2022-07-22T13:17:47;3.93;;;2.77;;
6203;SDS011;3135;42.602;23.468;2022-07-22T13:20:14;4.97;;;3.30;;
6203;SDS011;3135;42.602;23.468;2022-07-22T13:22:41;2.97;;;2.78;;
6203;SDS011;3135;42.602;23.468;2022-07-22T13:25:07;3.35;;;3.05;;
6203;SDS011;3135;42.602;23.468;2022-07-22T13:27:33;7.53;;;2.90;;
6203;SDS011;3135;42.602;23.468;2022-07-22T13:29:59;4.70;;;3.00;;
6203;SDS011;3135;42.602;23.468;2022-07-22T13:32:24;3.30;;;3.00;;
6203;SDS011;3135;42.602;23.468;2022-07-22T13:34:50;4.30;;;2.97;;
6203;SDS011;3135;42.602;23.468;2022-07-22T13:37:15;3.07;;;2.70;;
6203;SDS011;3135;42.602;23.468;2022-07-22T13:39:41;5.07;;;3.15;;
6203;SDS011;3135;42.602;23.468;2022-07-22T13:42:07;4.03;;;2.83;;
6203;SDS011;3135;42.602;23.468;2022-07-22T13:44:33;3.20;;;2.90;;
6203;SDS011;3135;42.602;23.468;2022-07-22T13:47:00;4.22;;;2.83;;
6203;SDS011;3135;42.602;23.468;2022-07-22T13:49:26;3.97;;;2.90;;
6203;SDS011;3135;42.602;23.468;2022-07-22T13:51:52;3.95;;;2.70;;
6203;SDS011;3135;42.602;23.468;2022-07-22T13:54:18;4.90;;;3.10;;
6203;SDS011;3135;42.602;23.468;2022-07-22T13:56:44;3.00;;;2.70;;
6203;SDS011;3135;42.602;23.468;2022-07-22T13:59:12;4.43;;;2.88;;
6203;SDS011;3135;42.602;23.468;2022-07-22T14:01:38;3.57;;;2.70;;
6203;SDS011;3135;42.602;23.468;2022-07-22T14:04:03;4.20;;;2.88;;
6203;SDS011;3135;42.602;23.468;2022-07-22T14:06:30;5.65;;;2.92;;
6203;SDS011;3135;42.602;23.468;2022-07-22T14:08:55;5.55;;;2.90;;
6203;SDS011;3135;42.602;23.468;2022-07-22T14:11:21;4.37;;;3.17;;
6203;SDS011;3135;42.602;23.468;2022-07-22T14:13:46;5.28;;;3.10;;
6203;SDS011;3135;42.602;23.468;2022-07-22T14:16:12;3.20;;;2.83;;
6203;SDS011;3135;42.602;23.468;2022-07-22T14:18:56;3.10;;;2.70;;
6203;SDS011;3135;42.602;23.468;2022-07-22T14:21:21;3.00;;;2.80;;
6203;SDS011;3135;42.602;23.468;2022-07-22T14:23:47;5.80;;;2.90;;
6203;SDS011;3135;42.602;23.468;2022-07-22T14:26:12;4.70;;;2.80;;
6203;SDS011;3135;42.602;23.468;2022-07-22T14:28:37;3.67;;;2.60;;
6203;SDS011;3135;42.602;23.468;2022-07-22T14:31:03;3.00;;;2.70;;
6203;SDS011;3135;42.602;23.468;2022-07-22T14:33:28;3.00;;;2.70;;
6203;SDS011;3135;42.602;23.468;2022-07-22T14:35:54;2.90;;;2.70;;
6203;SDS011;3135;42.602;23.468;2022-07-22T14:38:20;2.90;;;2.60;;
6203;SDS011;3135;42.602;23.468;2022-07-22T14:40:45;2.87;;;2.67;;
6203;SDS011;3135;42.602;23.468;2022-07-22T14:43:10;3.80;;;2.87;;
6203;SDS011;3135;42.602;23.468;2022-07-22T14:45:36;3.70;;;2.70;;
6203;SDS011;3135;42.602;23.468;2022-07-22T14:48:01;2.97;;;2.77;;
6203;SDS011;3135;42.602;23.468;2022-07-22T14:50:27;4.93;;;2.67;;
6203;SDS011;3135;42.602;23.468;2022-07-22T14:52:52;3.63;;;2.63;;
6203;SDS011;3135;42.602;23.468;2022-07-22T14:55:17;3.20;;;2.90;;
6203;SDS011;3135;42.602;23.468;2022-07-22T14:57:43;5.80;;;2.70;;
6203;SDS011;3135;42.602;23.468;2022-07-22T15:00:08;3.20;;;2.50;;
6203;SDS011;3135;42.602;23.468;2022-07-22T15:02:34;4.50;;;2.60;;
6203;SDS011;3135;42.602;23.468;2022-07-22T15:05:00;5.17;;;2.93;;
6203;SDS011;3135;42.602;23.468;2022-07-22T15:07:25;2.75;;;2.40;;
6203;SDS011;3135;42.602;23.468;2022-07-22T15:09:51;4.37;;;2.77;;
6203;SDS011;3135;42.602;23.468;2022-07-22T15:12:16;2.97;;;2.37;;
6203;SDS011;3135;42.602;23.468;2022-07-22T15:14:42;2.80;;;2.50;;
6203;SDS011;3135;42.602;23.468;2022-07-22T15:17:07;4.47;;;2.43;;
6203;SDS011;3135;42.602;23.468;2022-07-22T15:19:33;3.08;;;2.53;;
6203;SDS011;3135;42.602;23.468;2022-07-22T15:21:58;5.37;;;3.03;;
6203;SDS011;3135;42.602;23.468;2022-07-22T15:24:24;3.67;;;2.60;;
6203;SDS011;3135;42.602;23.468;2022-07-22T15:26:49;3.73;;;2.90;;
6203;SDS011;3135;42.602;23.468;2022-07-22T15:29:15;2.80;;;2.60;;
6203;SDS011;3135;42.602;23.468;2022-07-22T15:31:40;3.43;;;2.80;;